createdAt,value
2018-03-18T00:01:16.075Z,8.22
2018-03-18T00:03:50.239Z,8.09
2018-03-18T00:06:22.609Z,8.12
2018-03-18T00:08:54.091Z,8.16
2018-03-18T00:11:26.651Z,7.96
2018-03-18T00:13:58.304Z,7.77
2018-03-18T00:16:30.142Z,7.82
2018-03-18T00:19:03.970Z,7.90
2018-03-18T00:21:34.782Z,7.88
2018-03-18T00:24:05.834Z,7.97
2018-03-18T00:26:36.830Z,8.14
2018-03-18T00:29:08.219Z,8.35
2018-03-18T00:31:39.631Z,8.51
2018-03-18T00:34:14.505Z,8.65
2018-03-18T00:36:46.365Z,8.46
2018-03-18T00:39:19.094Z,8.10
2018-03-18T00:41:52.201Z,7.79
2018-03-18T00:44:22.501Z,7.68
2018-03-18T00:46:57.806Z,7.43
2018-03-18T00:49:28.907Z,7.27
2018-03-18T00:52:03.620Z,7.25
2018-03-18T00:54:35.744Z,7.47
2018-03-18T00:57:06.804Z,7.58
2018-03-18T00:59:36.825Z,7.79
2018-03-18T01:02:09.085Z,7.89
2018-03-18T01:04:41.218Z,7.89
2018-03-18T01:07:12.974Z,7.86
2018-03-18T01:09:44.040Z,8.07
2018-03-18T01:12:16.315Z,8.07
2018-03-18T01:14:48.106Z,7.96
2018-03-18T01:17:18.391Z,7.97
2018-03-18T01:19:49.363Z,7.77
2018-03-18T01:22:20.221Z,7.74
2018-03-18T01:24:55.954Z,7.67
2018-03-18T01:27:28.414Z,7.79
2018-03-18T01:30:00.476Z,7.88
2018-03-18T01:32:32.090Z,8.01
2018-03-18T01:35:03.988Z,7.96
2018-03-18T01:37:35.970Z,8.01
2018-03-18T01:40:10.838Z,8.00
2018-03-18T01:42:43.341Z,7.93
2018-03-18T01:45:16.261Z,7.81
2018-03-18T01:47:50.164Z,7.74
2018-03-18T01:50:26.152Z,7.75
2018-03-18T01:53:14.333Z,7.85
2018-03-18T01:55:44.923Z,7.79
2018-03-18T01:58:17.364Z,7.77
2018-03-18T02:00:49.027Z,7.82
2018-03-18T02:03:20.804Z,7.76
2018-03-18T02:05:53.024Z,7.85
2018-03-18T02:08:26.876Z,8.08
2018-03-18T02:11:01.180Z,8.39
2018-03-18T02:13:32.176Z,8.56
2018-03-18T02:16:05.135Z,8.55
2018-03-18T02:18:37.702Z,8.30
2018-03-18T02:21:09.331Z,8.11
2018-03-18T02:23:40.422Z,8.31
2018-03-18T02:26:13.844Z,8.13
2018-03-18T02:28:45.565Z,7.88
2018-03-18T02:31:18.354Z,8.01
2018-03-18T02:33:48.585Z,8.07
2018-03-18T02:36:18.969Z,8.01
2018-03-18T02:38:54.888Z,7.75
2018-03-18T02:41:26.433Z,7.49
2018-03-18T02:43:56.757Z,7.61
2018-03-18T02:46:29.361Z,7.71
2018-03-18T02:49:02.632Z,7.42
2018-03-18T02:51:32.944Z,7.27
2018-03-18T02:54:05.418Z,7.37
2018-03-18T02:56:38.697Z,7.43
2018-03-18T02:59:11.584Z,7.42
2018-03-18T03:01:42.099Z,7.42
2018-03-18T03:04:12.626Z,7.38
2018-03-18T03:06:44.847Z,7.41
2018-03-18T03:09:15.155Z,7.41
2018-03-18T03:11:46.285Z,7.45
2018-03-18T03:14:16.786Z,7.25
2018-03-18T03:16:47.018Z,7.11
2018-03-18T03:19:18.164Z,7.06
2018-03-18T03:21:51.038Z,7.07
2018-03-18T03:24:23.217Z,7.41
2018-03-18T03:26:53.869Z,7.75
2018-03-18T03:29:24.020Z,7.79
2018-03-18T03:31:54.483Z,7.69
2018-03-18T03:34:25.921Z,7.74
2018-03-18T03:36:56.328Z,7.66
2018-03-18T03:39:27.839Z,7.37
2018-03-18T03:42:01.165Z,7.64
2018-03-18T03:44:31.465Z,7.81
2018-03-18T03:47:01.660Z,7.76
2018-03-18T03:49:32.144Z,7.79
2018-03-18T03:52:05.397Z,7.60
2018-03-18T03:54:41.500Z,7.47
2018-03-18T03:57:13.795Z,7.68
2018-03-18T03:59:46.430Z,7.77
2018-03-18T04:02:16.853Z,7.94
2018-03-18T04:04:50.065Z,7.78
2018-03-18T04:07:21.273Z,7.39
2018-03-18T04:09:53.505Z,7.11
2018-03-18T04:12:24.641Z,6.98
2018-03-18T04:17:59.724Z,6.56
2018-03-18T04:20:37.227Z,6.73
2018-03-18T04:23:08.705Z,7.15
2018-03-18T04:25:40.177Z,7.31
2018-03-18T04:28:11.947Z,7.45
2018-03-18T04:30:43.138Z,7.32
2018-03-18T04:33:19.879Z,7.41
2018-03-18T04:35:51.441Z,7.34
2018-03-18T04:38:21.899Z,7.21
2018-03-18T04:40:53.572Z,7.24
2018-03-18T04:43:25.082Z,7.28
2018-03-18T04:45:57.398Z,7.26
2018-03-18T04:48:27.638Z,7.62
2018-03-18T04:50:57.684Z,7.97
2018-03-18T04:53:29.691Z,7.61
2018-03-18T04:55:59.598Z,7.87
2018-03-18T04:58:30.364Z,7.66
2018-03-18T05:01:04.048Z,7.20
2018-03-18T05:03:34.212Z,7.17
2018-03-18T05:06:10.135Z,7.30
2018-03-18T05:08:45.857Z,7.36
2018-03-18T05:11:15.850Z,7.54
2018-03-18T05:13:52.690Z,7.43
2018-03-18T05:16:24.173Z,7.50
2018-03-18T05:18:59.563Z,7.58
2018-03-18T05:21:29.303Z,7.75
2018-03-18T05:24:00.502Z,7.83
2018-03-18T05:26:34.815Z,7.84
2018-03-18T05:29:13.016Z,7.71
2018-03-18T05:31:43.214Z,7.74
2018-03-18T05:34:13.987Z,7.53
2018-03-18T05:36:45.782Z,7.47
2018-03-18T05:39:16.571Z,7.31
2018-03-18T05:41:46.222Z,7.51
2018-03-18T05:44:16.772Z,7.39
2018-03-18T05:46:46.637Z,7.24
2018-03-18T05:49:18.023Z,7.09
2018-03-18T05:51:48.685Z,6.88
2018-03-18T05:54:20.189Z,6.42
2018-03-18T05:56:50.947Z,6.53
2018-03-18T05:59:21.809Z,6.33
2018-03-18T06:01:58.141Z,5.99
2018-03-18T06:04:29.863Z,5.89
2018-03-18T06:07:01.284Z,5.84
2018-03-18T06:09:39.897Z,6.16
2018-03-18T06:12:11.685Z,5.79
2018-03-18T06:14:41.705Z,6.42
2018-03-18T06:17:17.762Z,6.48
2018-03-18T06:19:50.204Z,6.61
2018-03-18T06:22:21.171Z,6.49
2018-03-18T06:24:57.152Z,6.62
2018-03-18T06:27:31.665Z,6.45
2018-03-18T06:30:04.643Z,6.67
2018-03-18T06:32:37.369Z,6.33
2018-03-18T06:35:07.492Z,6.57
2018-03-18T06:37:38.101Z,6.85
2018-03-18T06:40:09.145Z,6.58
2018-03-18T06:42:42.144Z,6.63
2018-03-18T06:45:11.983Z,6.74
2018-03-18T06:47:44.674Z,7.01
2018-03-18T06:50:14.712Z,6.85
2018-03-18T06:52:46.397Z,6.67
2018-03-18T06:55:37.434Z,6.53
2018-03-18T06:58:08.748Z,6.16
2018-03-18T07:00:38.798Z,6.23
2018-03-18T07:03:11.830Z,6.36
2018-03-18T07:05:43.145Z,6.24
2018-03-18T07:08:12.799Z,6.09
2018-03-18T07:10:45.315Z,6.09
2018-03-18T07:13:16.889Z,6.01
2018-03-18T07:15:49.789Z,5.66
2018-03-18T07:18:20.305Z,5.59
2018-03-18T07:20:50.344Z,5.70
2018-03-18T07:23:21.967Z,5.89
2018-03-18T07:25:54.524Z,5.90
2018-03-18T07:28:26.489Z,6.02
2018-03-18T07:30:57.574Z,5.97
2018-03-18T07:40:12.428Z,5.97
2018-03-18T07:42:41.929Z,5.72
2018-03-18T07:45:12.032Z,5.51
2018-03-18T07:47:42.322Z,5.60
2018-03-18T07:50:11.615Z,5.88
2018-03-18T07:52:41.625Z,5.84
2018-03-18T07:55:11.097Z,6.14
2018-03-18T07:57:41.471Z,6.22
2018-03-18T08:00:12.591Z,6.00
2018-03-18T08:02:41.940Z,5.86
2018-03-18T08:05:11.688Z,5.84
2018-03-18T08:07:43.714Z,5.93
2018-03-18T08:10:13.506Z,5.90
2018-03-18T08:12:44.479Z,6.03
2018-03-18T08:15:14.011Z,6.14
2018-03-18T08:17:44.961Z,6.63
2018-03-18T08:20:16.542Z,6.51
2018-03-18T08:22:47.332Z,6.71
2018-03-18T08:25:20.706Z,6.75
2018-03-18T08:27:52.303Z,6.65
2018-03-18T08:30:23.723Z,6.79
2018-03-18T08:32:56.267Z,6.82
2018-03-18T08:35:28.718Z,6.53
2018-03-18T08:38:00.665Z,6.52
2018-03-18T08:40:33.122Z,5.84
2018-03-18T08:43:07.699Z,5.46
2018-03-18T08:45:40.989Z,5.19
2018-03-18T08:48:12.157Z,5.60
2018-03-18T08:50:43.406Z,5.78
2018-03-18T08:53:13.374Z,6.05
2018-03-18T08:55:46.290Z,6.19
2018-03-18T08:58:18.095Z,6.03
2018-03-18T09:00:50.316Z,6.28
2018-03-18T09:03:26.292Z,6.38
2018-03-18T09:05:56.807Z,6.35
2018-03-18T09:08:38.555Z,6.37
2018-03-18T09:11:09.054Z,5.61
2018-03-18T09:13:39.710Z,5.44
2018-03-18T09:16:09.921Z,5.59
2018-03-18T09:18:39.219Z,5.02
2018-03-18T09:21:08.547Z,5.24
2018-03-18T09:23:37.889Z,5.65
2018-03-18T09:26:07.222Z,5.23
2018-03-18T09:28:36.511Z,5.49
2018-03-18T09:31:06.019Z,5.39
2018-03-18T09:33:35.300Z,5.97
2018-03-18T09:36:04.679Z,6.16
2018-03-18T09:38:34.235Z,6.18
2018-03-18T09:41:33.880Z,4.91
2018-03-18T09:44:04.149Z,4.40
2018-03-18T09:46:33.465Z,4.65
2018-03-18T09:49:03.527Z,5.46
2018-03-18T09:51:33.678Z,5.50
2018-03-18T09:54:04.316Z,5.67
2018-03-18T09:56:33.973Z,6.25
2018-03-18T09:59:04.315Z,6.73
2018-03-18T10:01:40.072Z,6.77
2018-03-18T10:04:10.508Z,6.78
2018-03-18T10:06:42.675Z,6.76
2018-03-18T10:09:17.223Z,7.33
2018-03-18T10:11:47.064Z,7.17
2018-03-18T10:14:16.385Z,6.98
2018-03-18T10:16:45.872Z,7.11
2018-03-18T10:19:15.287Z,7.03
2018-03-18T10:21:44.583Z,7.21
2018-03-18T10:24:13.871Z,7.10
2018-03-18T10:26:43.331Z,7.16
2018-03-18T10:29:12.691Z,6.95
2018-03-18T10:31:42.007Z,6.91
2018-03-18T10:34:12.885Z,6.78
2018-03-18T10:36:42.191Z,6.86
2018-03-18T10:39:18.162Z,6.90
2018-03-18T10:41:53.354Z,7.29
2018-03-18T10:44:23.147Z,7.04
2018-03-18T10:46:52.726Z,6.83
2018-03-18T10:49:24.024Z,6.77
2018-03-18T10:51:55.010Z,6.84
2018-03-18T10:54:26.435Z,6.97
2018-03-18T10:56:56.076Z,7.06
2018-03-18T10:59:25.386Z,6.91
2018-03-18T11:05:11.124Z,6.49
2018-03-18T11:07:41.196Z,6.67
2018-03-18T11:10:10.674Z,6.04
2018-03-18T11:12:40.008Z,5.70
2018-03-18T11:15:10.057Z,6.23
2018-03-18T11:17:41.451Z,6.56
2018-03-18T11:20:12.663Z,6.47
2018-03-18T11:22:45.736Z,6.64
2018-03-18T11:25:15.404Z,6.24
2018-03-18T11:27:46.744Z,5.54
2018-03-18T11:30:19.386Z,5.95
2018-03-18T11:32:49.523Z,5.56
2018-03-18T11:35:21.942Z,5.68
2018-03-18T11:37:56.277Z,6.06
2018-03-18T11:40:31.068Z,6.47
2018-03-18T11:43:01.656Z,6.61
2018-03-18T11:45:31.226Z,6.32
2018-03-18T11:48:05.985Z,6.26
2018-03-18T11:50:36.066Z,6.07
2018-03-18T11:53:05.785Z,6.23
2018-03-18T11:55:35.649Z,5.75
2018-03-18T11:58:06.507Z,6.15
2018-03-18T12:00:36.924Z,6.29
2018-03-18T12:03:07.346Z,6.43
2018-03-18T12:05:39.413Z,5.82
2018-03-18T12:08:09.183Z,5.92
2018-03-18T12:10:39.622Z,6.23
2018-03-18T12:13:08.986Z,6.48
2018-03-18T12:15:38.258Z,6.29
2018-03-18T12:18:09.397Z,6.21
2018-03-18T12:20:39.766Z,5.93
2018-03-18T12:23:09.198Z,5.92
2018-03-18T12:25:39.200Z,5.89
2018-03-18T12:28:08.943Z,5.86
2018-03-18T12:30:38.295Z,5.81
2018-03-18T12:33:08.078Z,6.01
2018-03-18T12:35:37.477Z,5.96
2018-03-18T12:38:07.278Z,5.80
2018-03-18T12:40:36.663Z,5.82
2018-03-18T12:43:31.228Z,5.60
2018-03-18T12:46:01.878Z,5.43
2018-03-18T12:48:31.663Z,5.26
2018-03-18T12:51:02.125Z,5.36
2018-03-18T12:53:31.415Z,5.34
2018-03-18T12:56:01.371Z,5.37
2018-03-18T12:58:32.194Z,5.51
2018-03-18T13:01:02.480Z,5.19
2018-03-18T13:03:31.781Z,5.67
2018-03-18T13:06:01.857Z,5.68
2018-03-18T13:08:31.855Z,5.55
2018-03-18T13:11:01.904Z,5.21
2018-03-18T13:13:32.676Z,4.59
2018-03-18T13:16:03.314Z,4.65
2018-03-18T13:18:32.610Z,4.44
2018-03-18T13:21:01.926Z,5.11
2018-03-18T13:23:31.737Z,5.41
2018-03-18T13:26:06.371Z,5.31
2018-03-18T13:28:36.948Z,5.78
2018-03-18T13:31:09.991Z,5.82
2018-03-18T13:33:41.704Z,5.58
2018-03-18T13:36:13.345Z,5.28
2018-03-18T13:38:46.039Z,5.29
2018-03-18T13:41:18.376Z,5.36
2018-03-18T13:43:51.388Z,4.95
2018-03-18T13:46:25.241Z,5.18
2018-03-18T13:48:57.998Z,5.28
2018-03-18T13:51:29.821Z,4.93
2018-03-18T13:54:04.094Z,4.41
2018-03-18T13:56:38.079Z,4.96
2018-03-18T13:59:08.008Z,4.99
2018-03-18T14:01:41.057Z,5.26
2018-03-18T14:04:20.293Z,4.83
2018-03-18T14:06:53.149Z,4.37
2018-03-18T14:09:23.703Z,4.20
2018-03-18T14:11:56.017Z,4.28
2018-03-18T14:14:30.195Z,4.71
2018-03-18T14:17:38.465Z,4.68
2018-03-18T14:20:13.294Z,4.51
2018-03-18T14:22:43.688Z,4.03
2018-03-18T14:25:17.091Z,4.20
2018-03-18T14:27:49.017Z,3.74
2018-03-18T14:30:20.284Z,3.74
2018-03-18T14:32:59.782Z,3.54
2018-03-18T14:35:29.935Z,4.14
2018-03-18T14:38:08.756Z,4.73
2018-03-18T14:40:38.794Z,5.24
2018-03-18T14:43:11.731Z,5.09
2018-03-18T14:45:44.816Z,5.02
2018-03-18T14:48:14.692Z,5.30
2018-03-18T14:50:51.395Z,5.25
2018-03-18T14:53:21.734Z,4.49
2018-03-18T14:55:53.922Z,3.78
2018-03-18T14:58:24.621Z,3.78
2018-03-18T15:00:59.706Z,3.78
2018-03-18T15:03:31.309Z,3.46
2018-03-18T15:06:03.995Z,3.65
2018-03-18T15:08:34.741Z,3.81
2018-03-18T15:11:05.780Z,3.76
2018-03-18T15:13:36.774Z,3.50
2018-03-18T15:16:09.246Z,3.43
2018-03-18T15:18:43.098Z,3.46
2018-03-18T15:21:17.232Z,3.73
2018-03-18T15:23:51.806Z,4.18
2018-03-18T15:29:06.468Z,3.86
2018-03-18T15:31:39.608Z,3.49
2018-03-18T15:34:10.428Z,3.97
2018-03-18T15:36:44.498Z,4.48
2018-03-18T15:39:15.913Z,4.87
2018-03-18T15:41:50.964Z,4.63
2018-03-18T15:44:25.622Z,4.34
2018-03-18T15:46:56.355Z,4.35
2018-03-18T15:49:27.647Z,4.12
2018-03-18T15:52:00.599Z,4.11
2018-03-18T15:54:35.778Z,4.52
2018-03-18T15:57:05.831Z,4.50
2018-03-18T15:59:39.321Z,4.56
2018-03-18T16:02:11.417Z,4.98
2018-03-18T16:04:41.643Z,4.85
2018-03-18T16:07:12.728Z,5.21
2018-03-18T16:09:42.867Z,5.19
2018-03-18T16:12:16.365Z,5.23
2018-03-18T16:14:48.103Z,5.14
2018-03-18T16:17:20.232Z,5.44
2018-03-18T16:19:53.414Z,5.66
2018-03-18T16:22:25.121Z,5.62
2018-03-18T16:24:55.093Z,5.40
2018-03-18T16:27:27.713Z,5.40
2018-03-18T16:30:15.539Z,5.37
2018-03-18T16:32:47.582Z,5.16
2018-03-18T16:35:20.386Z,5.05
2018-03-18T16:37:51.933Z,4.78
2018-03-18T16:40:24.865Z,4.58
2018-03-18T16:42:55.012Z,4.83
2018-03-18T16:45:25.472Z,4.81
2018-03-18T16:47:58.291Z,5.03
2018-03-18T16:50:34.180Z,5.13
2018-03-18T16:53:05.398Z,4.98
2018-03-18T16:55:36.683Z,4.54
2018-03-18T16:58:09.559Z,4.66
2018-03-18T17:00:41.447Z,4.49
2018-03-18T17:03:16.549Z,4.34
2018-03-18T17:05:48.327Z,4.62
2018-03-18T17:08:19.180Z,4.43
2018-03-18T17:10:49.028Z,4.28
2018-03-18T17:13:20.233Z,4.35
2018-03-18T17:16:00.175Z,4.22
2018-03-18T17:18:30.752Z,4.14
2018-03-18T17:21:01.921Z,4.12
2018-03-18T17:23:32.967Z,3.91
2018-03-18T17:26:04.120Z,3.68
2018-03-18T17:28:39.654Z,3.17
2018-03-18T17:31:12.427Z,3.21
2018-03-18T17:34:01.421Z,3.44
2018-03-18T17:36:34.443Z,3.37
2018-03-18T17:39:07.920Z,3.50
2018-03-18T17:41:41.548Z,3.67
2018-03-18T17:47:32.708Z,4.15
2018-03-18T17:50:24.861Z,4.37
2018-03-18T17:53:14.730Z,3.71
2018-03-18T17:55:48.934Z,3.17
2018-03-18T17:58:19.422Z,3.63
2018-03-18T18:00:53.173Z,4.53
2018-03-18T18:03:24.274Z,4.66
2018-03-18T18:05:54.264Z,4.82
2018-03-18T18:08:31.193Z,4.87
2018-03-18T18:11:03.451Z,4.75
2018-03-18T18:13:36.779Z,4.79
2018-03-18T18:16:10.873Z,4.37
2018-03-18T18:18:44.370Z,4.15
2018-03-18T18:21:15.724Z,3.87
2018-03-18T18:23:47.915Z,3.70
2018-03-18T18:26:27.431Z,4.16
2018-03-18T18:29:04.475Z,4.09
2018-03-18T18:31:36.411Z,4.15
2018-03-18T18:34:11.135Z,4.21
2018-03-18T18:36:40.832Z,3.59
2018-03-18T18:39:11.751Z,3.77
2018-03-18T18:41:43.240Z,4.09
2018-03-18T18:44:18.240Z,4.27
2018-03-18T18:46:51.410Z,4.32
2018-03-18T18:49:22.109Z,4.61
2018-03-18T18:51:54.093Z,4.25
2018-03-18T18:54:33.869Z,4.27
2018-03-18T18:57:06.959Z,4.33
2018-03-18T18:59:37.026Z,4.38
2018-03-18T19:02:08.064Z,4.00
2018-03-18T19:04:39.168Z,3.68
2018-03-18T19:07:10.938Z,4.01
2018-03-18T19:09:44.766Z,4.01
2018-03-18T19:12:15.236Z,3.87
2018-03-18T19:14:45.176Z,4.10
2018-03-18T19:17:14.824Z,3.80
2018-03-18T19:19:44.700Z,3.31
2018-03-18T19:22:17.689Z,3.51
2018-03-18T19:24:49.891Z,3.31
2018-03-18T19:27:19.954Z,3.45
2018-03-18T19:29:57.906Z,3.63
2018-03-18T19:32:30.596Z,3.90
2018-03-18T19:35:01.525Z,4.09
2018-03-18T19:37:31.483Z,4.31
2018-03-18T19:40:06.359Z,4.00
2018-03-18T19:42:36.370Z,4.08
2018-03-18T19:45:08.467Z,4.26
2018-03-18T19:47:42.441Z,4.08
2018-03-18T19:50:15.924Z,3.67
2018-03-18T19:52:47.913Z,3.95
2018-03-18T19:55:22.032Z,4.01
2018-03-18T19:57:56.540Z,3.52
2018-03-18T20:00:29.341Z,3.67
2018-03-18T20:02:59.808Z,3.95
2018-03-18T20:05:30.461Z,3.81
2018-03-18T20:08:00.013Z,3.93
2018-03-18T20:10:30.858Z,3.57
2018-03-18T20:13:04.301Z,3.84
2018-03-18T20:15:35.147Z,4.48
2018-03-18T20:18:11.338Z,4.70
2018-03-18T20:20:45.223Z,4.90
2018-03-18T20:23:16.501Z,4.69
2018-03-18T20:25:49.349Z,4.69
2018-03-18T20:28:19.030Z,4.43
2018-03-18T20:30:54.877Z,4.33
2018-03-18T20:33:28.068Z,4.33
2018-03-18T20:35:58.444Z,4.16
2018-03-18T20:38:32.114Z,4.32
2018-03-18T20:41:14.232Z,4.55
2018-03-18T20:43:46.690Z,4.73
2018-03-18T20:46:22.540Z,4.91
2018-03-18T20:48:59.653Z,4.90
2018-03-18T20:51:31.194Z,4.61
2018-03-18T20:54:01.769Z,4.73
2018-03-18T20:56:32.380Z,4.71
2018-03-18T20:59:05.827Z,4.70
2018-03-18T21:01:39.975Z,4.50
2018-03-18T21:04:11.582Z,4.39
2018-03-18T21:06:47.103Z,4.45
2018-03-18T21:09:17.064Z,4.71
2018-03-18T21:11:54.735Z,4.89
2018-03-18T21:14:31.534Z,4.84
2018-03-18T21:17:03.047Z,4.62
2018-03-18T21:19:35.461Z,4.78
2018-03-18T21:22:09.335Z,4.63
2018-03-18T21:24:42.917Z,4.49
2018-03-18T21:27:14.086Z,4.68
2018-03-18T21:32:53.419Z,4.28
2018-03-18T21:35:25.107Z,4.51
2018-03-18T21:37:56.817Z,4.53
2018-03-18T21:40:30.447Z,4.51
2018-03-18T21:43:01.079Z,4.46
2018-03-18T21:45:32.405Z,4.12
2018-03-18T21:48:03.633Z,3.80
2018-03-18T21:50:38.302Z,4.03
2018-03-18T21:53:08.927Z,4.48
2018-03-18T21:55:39.777Z,4.45
2018-03-18T21:58:12.545Z,4.63
2018-03-18T22:00:45.577Z,4.56
2018-03-18T22:03:17.643Z,4.67
2018-03-18T22:05:52.420Z,4.83
2018-03-18T22:08:25.080Z,4.86
2018-03-18T22:10:55.067Z,4.69
2018-03-18T22:13:27.800Z,4.70
2018-03-18T22:18:39.443Z,4.96
2018-03-18T22:21:12.327Z,4.81
2018-03-18T22:23:48.047Z,4.71
2018-03-18T22:26:18.831Z,4.75
2018-03-18T22:28:51.314Z,4.45
2018-03-18T22:31:28.291Z,4.47
2018-03-18T22:34:00.069Z,4.58
2018-03-18T22:36:32.322Z,4.73
2018-03-18T22:39:04.211Z,4.03
2018-03-18T22:41:37.296Z,4.30
2018-03-18T22:44:10.570Z,4.26
2018-03-18T22:46:40.647Z,4.26
2018-03-18T22:49:15.630Z,4.16
2018-03-18T22:51:48.590Z,4.43
2018-03-18T22:54:19.833Z,4.36
2018-03-18T22:56:55.156Z,4.39
2018-03-18T22:59:30.069Z,4.11
2018-03-18T23:02:01.931Z,4.19
2018-03-18T23:04:32.944Z,4.07
2018-03-18T23:07:02.946Z,4.21
2018-03-18T23:09:35.394Z,4.19
2018-03-18T23:12:11.081Z,4.30
2018-03-18T23:14:41.945Z,4.13
2018-03-18T23:17:11.554Z,4.25
2018-03-18T23:19:43.316Z,3.94
2018-03-18T23:22:13.579Z,4.01
2018-03-18T23:24:45.566Z,4.39
2018-03-18T23:27:21.201Z,4.34
2018-03-18T23:29:53.530Z,4.42
2018-03-18T23:32:24.667Z,4.31
2018-03-18T23:34:57.901Z,4.30
2018-03-18T23:37:32.848Z,4.36
2018-03-18T23:40:07.321Z,4.28
2018-03-18T23:42:38.853Z,4.52
2018-03-18T23:45:26.247Z,4.70
2018-03-18T23:47:57.198Z,4.83
2018-03-18T23:50:28.059Z,4.70
2018-03-18T23:53:00.763Z,4.66
2018-03-18T23:55:31.240Z,4.32
2018-03-18T23:58:01.037Z,4.03
